Accueil
METAR-TAF:

METAR-TAF

Aéroports :

Aéroport international Amílcar-Cabral

Sal, Cap-Vert

latitude: 16-44N, longitude: 022-57W, altitude: 54 m

Observation

Le bulletin a été fait il y a 28 minutes, à 18:00 UTC
Vent 19 kt de est
Température 24°C
Humidité 74%
Pression 1014 hPa
Visibilité 10 km ou plus
Quelques nuages à une hauteur de 1300 ft

METAR: GVAC 241800Z 08019KT 9999 FEW013 24/19 Q1014 NOSIG

Heure: 17:28 (18:28 UTC)

Prévision

Le bulletin a été fait il y a 1 heure et 28 minutes, à 17:00 UTC
Prévision valable du 24 à 18 UTC au 25 à 24 UTC
Vent 16 kt de nord-est
Visibilité 10 km ou plus
Quelques nuages à une hauteur de 1400 ft
Probabilité 40% :
Temporairement
du 25 à 12 UTC au 25 à 17 UTC
Vent 17 kt de nord-est avec des rafales jusqu'à 28 kt

TAF: GVAC 241700Z 2418/2524 05016KT 9999 FEW014 PROB40 TEMPO 2512/2517 05017G28KT

Observations et prévisions météorologiques de plus de 4000 aéroports (messages METAR et TAF).

Les stations disponibles sont représentées par des disques jaunes et rouges sur la carte.

Passer la souris dessus pour voir le nom de la station.

Cliquer dessus pour voir les observations et prévisions météorologiques.

Pour changer de carte: cliquez sur les boutons verts avec une croix noire pour zoomer, sur le bouton vert avec un tiret pour effectuer un zoom arrière, ou sur les flèches vertes pour les cartes adjacentes.


METAR-TAF: